sensor_id;sensor_type;location;lat;lon;timestamp;P1;durP1;ratioP1;P2;durP2;ratioP2
20008;SDS011;10165;42.662;23.260;2022-09-03T00:00:35;5.97;;;3.87;;
20008;SDS011;10165;42.662;23.260;2022-09-03T00:03:08;6.57;;;4.13;;
20008;SDS011;10165;42.662;23.260;2022-09-03T00:06:00;7.13;;;3.83;;
20008;SDS011;10165;42.662;23.260;2022-09-03T00:08:37;7.23;;;3.67;;
20008;SDS011;10165;42.662;23.260;2022-09-03T00:14:11;5.27;;;3.87;;
20008;SDS011;10165;42.662;23.260;2022-09-03T00:19:24;6.83;;;3.70;;
20008;SDS011;10165;42.662;23.260;2022-09-03T00:21:55;5.53;;;3.73;;
20008;SDS011;10165;42.662;23.260;2022-09-03T00:24:27;6.60;;;4.50;;
20008;SDS011;10165;42.662;23.260;2022-09-03T00:26:58;4.90;;;4.00;;
20008;SDS011;10165;42.662;23.260;2022-09-03T00:29:49;6.87;;;3.97;;
20008;SDS011;10165;42.662;23.260;2022-09-03T00:38:05;5.40;;;3.57;;
20008;SDS011;10165;42.662;23.260;2022-09-03T00:40:37;5.97;;;4.13;;
20008;SDS011;10165;42.662;23.260;2022-09-03T00:43:39;4.73;;;3.90;;
20008;SDS011;10165;42.662;23.260;2022-09-03T00:52:05;6.33;;;4.37;;
20008;SDS011;10165;42.662;23.260;2022-09-03T01:05:41;5.47;;;3.53;;
20008;SDS011;10165;42.662;23.260;2022-09-03T01:13:47;5.50;;;4.00;;
20008;SDS011;10165;42.662;23.260;2022-09-03T01:19:09;7.80;;;4.53;;
20008;SDS011;10165;42.662;23.260;2022-09-03T01:29:49;6.23;;;4.30;;
20008;SDS011;10165;42.662;23.260;2022-09-03T01:40:56;7.13;;;4.53;;
20008;SDS011;10165;42.662;23.260;2022-09-03T01:44:13;6.30;;;4.70;;
20008;SDS011;10165;42.662;23.260;2022-09-03T01:46:48;5.47;;;4.57;;
20008;SDS011;10165;42.662;23.260;2022-09-03T01:49:33;8.20;;;4.10;;
20008;SDS011;10165;42.662;23.260;2022-09-03T01:52:11;5.23;;;4.10;;
20008;SDS011;10165;42.662;23.260;2022-09-03T01:58:04;5.67;;;4.10;;
20008;SDS011;10165;42.662;23.260;2022-09-03T02:00:38;7.03;;;4.10;;
20008;SDS011;10165;42.662;23.260;2022-09-03T02:03:09;9.47;;;4.13;;
20008;SDS011;10165;42.662;23.260;2022-09-03T02:05:37;5.67;;;3.80;;
20008;SDS011;10165;42.662;23.260;2022-09-03T02:08:05;6.93;;;4.27;;
20008;SDS011;10165;42.662;23.260;2022-09-03T02:10:39;6.83;;;4.07;;
20008;SDS011;10165;42.662;23.260;2022-09-03T02:13:09;5.80;;;4.47;;
20008;SDS011;10165;42.662;23.260;2022-09-03T02:16:12;5.47;;;4.07;;
20008;SDS011;10165;42.662;23.260;2022-09-03T02:18:42;5.87;;;4.27;;
20008;SDS011;10165;42.662;23.260;2022-09-03T02:21:13;6.13;;;3.90;;
20008;SDS011;10165;42.662;23.260;2022-09-03T02:23:43;6.80;;;4.00;;
20008;SDS011;10165;42.662;23.260;2022-09-03T02:26:10;5.20;;;4.03;;
20008;SDS011;10165;42.662;23.260;2022-09-03T02:28:39;9.40;;;4.80;;
20008;SDS011;10165;42.662;23.260;2022-09-03T02:31:06;6.60;;;4.07;;
20008;SDS011;10165;42.662;23.260;2022-09-03T02:33:37;4.50;;;3.57;;
20008;SDS011;10165;42.662;23.260;2022-09-03T02:36:07;5.20;;;3.90;;
20008;SDS011;10165;42.662;23.260;2022-09-03T02:38:35;4.87;;;3.33;;
20008;SDS011;10165;42.662;23.260;2022-09-03T02:41:02;5.67;;;3.97;;
20008;SDS011;10165;42.662;23.260;2022-09-03T02:46:09;4.17;;;3.70;;
20008;SDS011;10165;42.662;23.260;2022-09-03T02:48:43;4.27;;;3.77;;
20008;SDS011;10165;42.662;23.260;2022-09-03T02:51:09;5.53;;;3.97;;
20008;SDS011;10165;42.662;23.260;2022-09-03T02:53:40;8.00;;;4.13;;
20008;SDS011;10165;42.662;23.260;2022-09-03T02:56:07;5.40;;;4.13;;
20008;SDS011;10165;42.662;23.260;2022-09-03T02:58:34;7.17;;;4.40;;
20008;SDS011;10165;42.662;23.260;2022-09-03T03:01:01;5.37;;;4.07;;
20008;SDS011;10165;42.662;23.260;2022-09-03T03:03:29;5.97;;;4.30;;
20008;SDS011;10165;42.662;23.260;2022-09-03T03:05:57;5.77;;;3.80;;
20008;SDS011;10165;42.662;23.260;2022-09-03T03:08:26;6.47;;;3.77;;
20008;SDS011;10165;42.662;23.260;2022-09-03T03:10:55;5.73;;;4.27;;
20008;SDS011;10165;42.662;23.260;2022-09-03T03:13:24;7.80;;;4.33;;
20008;SDS011;10165;42.662;23.260;2022-09-03T03:15:56;5.60;;;4.07;;
20008;SDS011;10165;42.662;23.260;2022-09-03T03:18:24;6.57;;;4.10;;
20008;SDS011;10165;42.662;23.260;2022-09-03T03:20:51;6.37;;;4.93;;
20008;SDS011;10165;42.662;23.260;2022-09-03T03:23:17;6.33;;;4.60;;
20008;SDS011;10165;42.662;23.260;2022-09-03T03:25:44;7.00;;;4.67;;
20008;SDS011;10165;42.662;23.260;2022-09-03T03:28:12;6.33;;;4.57;;
20008;SDS011;10165;42.662;23.260;2022-09-03T03:30:41;8.63;;;5.00;;
20008;SDS011;10165;42.662;23.260;2022-09-03T03:33:08;6.07;;;4.23;;
20008;SDS011;10165;42.662;23.260;2022-09-03T03:35:35;6.43;;;4.30;;
20008;SDS011;10165;42.662;23.260;2022-09-03T03:38:02;9.17;;;4.87;;
20008;SDS011;10165;42.662;23.260;2022-09-03T03:40:30;10.57;;;5.07;;
20008;SDS011;10165;42.662;23.260;2022-09-03T03:42:57;10.73;;;5.13;;
20008;SDS011;10165;42.662;23.260;2022-09-03T03:45:24;7.70;;;5.13;;
20008;SDS011;10165;42.662;23.260;2022-09-03T03:47:50;6.20;;;4.90;;
20008;SDS011;10165;42.662;23.260;2022-09-03T03:50:18;9.73;;;5.43;;
20008;SDS011;10165;42.662;23.260;2022-09-03T03:52:44;9.13;;;5.20;;
20008;SDS011;10165;42.662;23.260;2022-09-03T03:55:11;7.73;;;5.33;;
20008;SDS011;10165;42.662;23.260;2022-09-03T03:57:41;10.00;;;6.03;;
20008;SDS011;10165;42.662;23.260;2022-09-03T04:00:08;7.57;;;5.33;;
20008;SDS011;10165;42.662;23.260;2022-09-03T04:02:35;7.17;;;4.90;;
20008;SDS011;10165;42.662;23.260;2022-09-03T04:05:04;9.27;;;5.47;;
20008;SDS011;10165;42.662;23.260;2022-09-03T04:07:32;8.77;;;5.30;;
20008;SDS011;10165;42.662;23.260;2022-09-03T04:09:59;8.97;;;4.50;;
20008;SDS011;10165;42.662;23.260;2022-09-03T04:12:26;5.73;;;4.50;;
20008;SDS011;10165;42.662;23.260;2022-09-03T04:14:53;6.93;;;4.93;;
20008;SDS011;10165;42.662;23.260;2022-09-03T04:17:19;8.03;;;4.83;;
20008;SDS011;10165;42.662;23.260;2022-09-03T04:19:50;6.77;;;4.63;;
20008;SDS011;10165;42.662;23.260;2022-09-03T04:22:17;6.93;;;4.70;;
20008;SDS011;10165;42.662;23.260;2022-09-03T04:24:44;7.10;;;5.23;;
20008;SDS011;10165;42.662;23.260;2022-09-03T04:27:11;7.80;;;4.70;;
20008;SDS011;10165;42.662;23.260;2022-09-03T04:29:38;7.67;;;4.23;;
20008;SDS011;10165;42.662;23.260;2022-09-03T04:32:05;6.37;;;4.57;;
20008;SDS011;10165;42.662;23.260;2022-09-03T04:34:50;6.00;;;4.43;;
20008;SDS011;10165;42.662;23.260;2022-09-03T04:37:16;6.93;;;4.93;;
20008;SDS011;10165;42.662;23.260;2022-09-03T04:39:45;7.43;;;4.80;;
20008;SDS011;10165;42.662;23.260;2022-09-03T04:42:12;6.50;;;4.33;;
20008;SDS011;10165;42.662;23.260;2022-09-03T04:44:38;5.73;;;4.13;;
20008;SDS011;10165;42.662;23.260;2022-09-03T04:47:06;5.60;;;4.23;;
20008;SDS011;10165;42.662;23.260;2022-09-03T04:49:33;11.47;;;4.97;;
20008;SDS011;10165;42.662;23.260;2022-09-03T04:52:00;5.17;;;4.00;;
20008;SDS011;10165;42.662;23.260;2022-09-03T04:54:27;8.17;;;4.87;;
20008;SDS011;10165;42.662;23.260;2022-09-03T04:56:55;7.60;;;4.27;;
20008;SDS011;10165;42.662;23.260;2022-09-03T04:59:21;6.77;;;4.80;;
20008;SDS011;10165;42.662;23.260;2022-09-03T05:01:48;10.50;;;5.03;;
20008;SDS011;10165;42.662;23.260;2022-09-03T05:04:15;8.10;;;4.77;;
20008;SDS011;10165;42.662;23.260;2022-09-03T05:06:41;7.03;;;4.87;;
20008;SDS011;10165;42.662;23.260;2022-09-03T05:09:08;5.93;;;4.23;;
20008;SDS011;10165;42.662;23.260;2022-09-03T05:11:35;6.20;;;4.63;;
20008;SDS011;10165;42.662;23.260;2022-09-03T05:14:02;5.83;;;4.57;;
20008;SDS011;10165;42.662;23.260;2022-09-03T05:16:31;5.40;;;4.20;;
20008;SDS011;10165;42.662;23.260;2022-09-03T05:18:58;7.80;;;4.90;;
20008;SDS011;10165;42.662;23.260;2022-09-03T05:21:26;4.67;;;3.93;;
20008;SDS011;10165;42.662;23.260;2022-09-03T05:23:54;4.90;;;3.87;;
20008;SDS011;10165;42.662;23.260;2022-09-03T05:26:22;4.70;;;3.70;;
20008;SDS011;10165;42.662;23.260;2022-09-03T05:29:00;8.43;;;3.87;;
20008;SDS011;10165;42.662;23.260;2022-09-03T05:31:29;5.30;;;4.03;;
20008;SDS011;10165;42.662;23.260;2022-09-03T05:33:58;5.10;;;3.73;;
20008;SDS011;10165;42.662;23.260;2022-09-03T05:36:28;4.43;;;3.53;;
20008;SDS011;10165;42.662;23.260;2022-09-03T05:38:57;5.20;;;4.27;;
20008;SDS011;10165;42.662;23.260;2022-09-03T05:41:27;5.87;;;3.70;;
20008;SDS011;10165;42.662;23.260;2022-09-03T05:43:55;4.77;;;3.47;;
20008;SDS011;10165;42.662;23.260;2022-09-03T05:46:25;3.80;;;3.13;;
20008;SDS011;10165;42.662;23.260;2022-09-03T05:49:00;5.43;;;3.50;;
20008;SDS011;10165;42.662;23.260;2022-09-03T05:51:31;5.70;;;4.03;;
20008;SDS011;10165;42.662;23.260;2022-09-03T05:53:59;5.67;;;4.20;;
20008;SDS011;10165;42.662;23.260;2022-09-03T05:56:28;5.47;;;3.83;;
20008;SDS011;10165;42.662;23.260;2022-09-03T05:58:57;8.77;;;3.63;;
20008;SDS011;10165;42.662;23.260;2022-09-03T06:01:32;4.70;;;3.60;;
20008;SDS011;10165;42.662;23.260;2022-09-03T06:04:00;8.63;;;3.90;;
20008;SDS011;10165;42.662;23.260;2022-09-03T06:06:30;5.27;;;3.80;;
20008;SDS011;10165;42.662;23.260;2022-09-03T06:09:02;3.60;;;2.90;;
20008;SDS011;10165;42.662;23.260;2022-09-03T06:11:32;4.37;;;3.37;;
20008;SDS011;10165;42.662;23.260;2022-09-03T06:14:01;3.90;;;3.30;;
20008;SDS011;10165;42.662;23.260;2022-09-03T06:16:34;4.60;;;3.33;;
20008;SDS011;10165;42.662;23.260;2022-09-03T06:19:06;5.40;;;3.07;;
20008;SDS011;10165;42.662;23.260;2022-09-03T06:21:39;4.93;;;3.63;;
20008;SDS011;10165;42.662;23.260;2022-09-03T06:24:11;4.33;;;3.40;;
20008;SDS011;10165;42.662;23.260;2022-09-03T06:26:42;4.47;;;3.47;;
20008;SDS011;10165;42.662;23.260;2022-09-03T06:29:10;5.30;;;3.40;;
20008;SDS011;10165;42.662;23.260;2022-09-03T06:31:37;3.73;;;3.27;;
20008;SDS011;10165;42.662;23.260;2022-09-03T06:34:05;4.73;;;3.40;;
20008;SDS011;10165;42.662;23.260;2022-09-03T06:36:31;5.57;;;3.87;;
20008;SDS011;10165;42.662;23.260;2022-09-03T06:38:58;4.90;;;3.00;;
20008;SDS011;10165;42.662;23.260;2022-09-03T06:41:26;7.07;;;2.87;;
20008;SDS011;10165;42.662;23.260;2022-09-03T06:43:57;5.40;;;3.57;;
20008;SDS011;10165;42.662;23.260;2022-09-03T06:46:32;4.37;;;3.70;;
20008;SDS011;10165;42.662;23.260;2022-09-03T06:49:00;5.67;;;4.10;;
20008;SDS011;10165;42.662;23.260;2022-09-03T06:51:28;4.50;;;3.60;;
20008;SDS011;10165;42.662;23.260;2022-09-03T06:54:00;5.03;;;3.07;;
20008;SDS011;10165;42.662;23.260;2022-09-03T06:56:31;4.97;;;3.60;;
20008;SDS011;10165;42.662;23.260;2022-09-03T06:59:14;4.87;;;3.53;;
20008;SDS011;10165;42.662;23.260;2022-09-03T07:01:41;4.80;;;3.57;;
20008;SDS011;10165;42.662;23.260;2022-09-03T07:04:18;5.03;;;3.90;;
20008;SDS011;10165;42.662;23.260;2022-09-03T07:06:45;5.80;;;3.93;;
20008;SDS011;10165;42.662;23.260;2022-09-03T07:09:12;5.13;;;4.37;;
20008;SDS011;10165;42.662;23.260;2022-09-03T07:11:41;4.37;;;3.50;;
20008;SDS011;10165;42.662;23.260;2022-09-03T07:14:14;4.43;;;3.70;;
20008;SDS011;10165;42.662;23.260;2022-09-03T07:16:45;8.80;;;4.40;;
20008;SDS011;10165;42.662;23.260;2022-09-03T07:19:13;4.63;;;3.87;;
20008;SDS011;10165;42.662;23.260;2022-09-03T07:21:41;4.80;;;3.70;;
20008;SDS011;10165;42.662;23.260;2022-09-03T07:24:15;5.63;;;4.33;;
20008;SDS011;10165;42.662;23.260;2022-09-03T07:26:42;6.83;;;4.87;;
20008;SDS011;10165;42.662;23.260;2022-09-03T07:29:14;5.13;;;3.83;;
20008;SDS011;10165;42.662;23.260;2022-09-03T07:31:41;4.17;;;3.70;;
20008;SDS011;10165;42.662;23.260;2022-09-03T07:34:10;3.90;;;3.37;;
20008;SDS011;10165;42.662;23.260;2022-09-03T07:36:42;6.97;;;4.40;;
20008;SDS011;10165;42.662;23.260;2022-09-03T07:39:14;4.70;;;3.43;;
20008;SDS011;10165;42.662;23.260;2022-09-03T07:41:43;6.80;;;4.20;;
20008;SDS011;10165;42.662;23.260;2022-09-03T07:44:15;6.57;;;4.37;;
20008;SDS011;10165;42.662;23.260;2022-09-03T07:46:48;6.00;;;4.07;;
20008;SDS011;10165;42.662;23.260;2022-09-03T07:49:16;5.07;;;4.10;;
20008;SDS011;10165;42.662;23.260;2022-09-03T07:51:43;6.57;;;4.13;;
20008;SDS011;10165;42.662;23.260;2022-09-03T07:54:11;8.30;;;4.53;;
20008;SDS011;10165;42.662;23.260;2022-09-03T07:56:38;6.47;;;4.20;;
20008;SDS011;10165;42.662;23.260;2022-09-03T07:59:06;4.67;;;3.67;;
20008;SDS011;10165;42.662;23.260;2022-09-03T08:01:34;5.23;;;3.90;;
20008;SDS011;10165;42.662;23.260;2022-09-03T08:04:03;4.73;;;3.87;;
20008;SDS011;10165;42.662;23.260;2022-09-03T08:06:38;3.97;;;3.33;;
20008;SDS011;10165;42.662;23.260;2022-09-03T08:09:06;5.60;;;4.10;;
20008;SDS011;10165;42.662;23.260;2022-09-03T08:11:37;5.33;;;4.60;;
20008;SDS011;10165;42.662;23.260;2022-09-03T08:14:06;7.63;;;4.47;;
20008;SDS011;10165;42.662;23.260;2022-09-03T08:16:35;5.23;;;4.10;;
20008;SDS011;10165;42.662;23.260;2022-09-03T08:19:04;5.10;;;4.13;;
20008;SDS011;10165;42.662;23.260;2022-09-03T08:21:33;5.13;;;3.93;;
20008;SDS011;10165;42.662;23.260;2022-09-03T08:24:00;4.07;;;3.67;;
20008;SDS011;10165;42.662;23.260;2022-09-03T08:26:35;7.40;;;3.90;;
20008;SDS011;10165;42.662;23.260;2022-09-03T08:29:03;5.97;;;4.40;;
20008;SDS011;10165;42.662;23.260;2022-09-03T08:31:31;5.23;;;4.10;;
20008;SDS011;10165;42.662;23.260;2022-09-03T08:34:00;5.03;;;4.40;;
20008;SDS011;10165;42.662;23.260;2022-09-03T08:36:30;5.83;;;4.57;;
20008;SDS011;10165;42.662;23.260;2022-09-03T08:38:59;5.73;;;4.43;;
20008;SDS011;10165;42.662;23.260;2022-09-03T08:47:10;7.23;;;4.20;;
20008;SDS011;10165;42.662;23.260;2022-09-03T08:52:55;5.47;;;4.13;;
20008;SDS011;10165;42.662;23.260;2022-09-03T09:00:53;6.20;;;3.87;;
20008;SDS011;10165;42.662;23.260;2022-09-03T09:06:38;5.97;;;4.30;;
20008;SDS011;10165;42.662;23.260;2022-09-03T09:14:18;5.07;;;3.93;;
20008;SDS011;10165;42.662;23.260;2022-09-03T09:19:42;4.40;;;3.73;;
20008;SDS011;10165;42.662;23.260;2022-09-03T09:22:23;4.73;;;3.77;;
20008;SDS011;10165;42.662;23.260;2022-09-03T09:24:56;4.47;;;3.53;;
20008;SDS011;10165;42.662;23.260;2022-09-03T09:27:27;4.40;;;3.73;;
20008;SDS011;10165;42.662;23.260;2022-09-03T09:29:55;4.30;;;3.67;;
20008;SDS011;10165;42.662;23.260;2022-09-03T09:32:27;6.03;;;3.37;;
20008;SDS011;10165;42.662;23.260;2022-09-03T09:34:54;5.90;;;3.70;;
20008;SDS011;10165;42.662;23.260;2022-09-03T09:37:20;4.57;;;3.40;;
20008;SDS011;10165;42.662;23.260;2022-09-03T09:39:54;3.50;;;3.20;;
20008;SDS011;10165;42.662;23.260;2022-09-03T09:42:23;5.07;;;3.90;;
20008;SDS011;10165;42.662;23.260;2022-09-03T09:44:51;4.53;;;3.67;;
20008;SDS011;10165;42.662;23.260;2022-09-03T09:47:31;4.03;;;3.30;;
20008;SDS011;10165;42.662;23.260;2022-09-03T09:50:14;4.47;;;4.07;;
20008;SDS011;10165;42.662;23.260;2022-09-03T09:53:06;4.63;;;4.13;;
20008;SDS011;10165;42.662;23.260;2022-09-03T09:55:49;3.97;;;3.20;;
20008;SDS011;10165;42.662;23.260;2022-09-03T09:58:18;4.87;;;3.70;;
20008;SDS011;10165;42.662;23.260;2022-09-03T10:00:56;4.57;;;4.10;;
20008;SDS011;10165;42.662;23.260;2022-09-03T10:03:25;4.10;;;3.67;;
20008;SDS011;10165;42.662;23.260;2022-09-03T10:06:08;4.30;;;3.83;;
20008;SDS011;10165;42.662;23.260;2022-09-03T10:09:07;4.73;;;3.70;;
20008;SDS011;10165;42.662;23.260;2022-09-03T10:11:36;4.03;;;3.40;;
20008;SDS011;10165;42.662;23.260;2022-09-03T10:14:08;6.30;;;4.23;;
20008;SDS011;10165;42.662;23.260;2022-09-03T10:16:53;5.30;;;4.17;;
20008;SDS011;10165;42.662;23.260;2022-09-03T10:19:28;5.10;;;4.60;;
20008;SDS011;10165;42.662;23.260;2022-09-03T10:22:09;3.87;;;3.47;;
20008;SDS011;10165;42.662;23.260;2022-09-03T10:24:48;6.20;;;4.13;;
20008;SDS011;10165;42.662;23.260;2022-09-03T10:27:23;5.73;;;3.90;;
20008;SDS011;10165;42.662;23.260;2022-09-03T10:29:51;4.27;;;3.87;;
20008;SDS011;10165;42.662;23.260;2022-09-03T10:35:33;5.33;;;3.97;;
20008;SDS011;10165;42.662;23.260;2022-09-03T10:46:26;4.40;;;4.00;;
20008;SDS011;10165;42.662;23.260;2022-09-03T10:52:09;4.03;;;3.57;;
20008;SDS011;10165;42.662;23.260;2022-09-03T11:00:21;3.90;;;3.50;;
20008;SDS011;10165;42.662;23.260;2022-09-03T11:05:36;5.60;;;3.90;;
20008;SDS011;10165;42.662;23.260;2022-09-03T11:08:11;3.90;;;3.37;;
20008;SDS011;10165;42.662;23.260;2022-09-03T11:10:48;4.40;;;3.47;;
20008;SDS011;10165;42.662;23.260;2022-09-03T11:13:21;4.30;;;3.80;;
20008;SDS011;10165;42.662;23.260;2022-09-03T11:16:01;7.23;;;4.03;;
20008;SDS011;10165;42.662;23.260;2022-09-03T11:18:33;3.90;;;3.50;;
20008;SDS011;10165;42.662;23.260;2022-09-03T11:21:07;4.10;;;3.50;;
20008;SDS011;10165;42.662;23.260;2022-09-03T11:23:40;6.57;;;3.90;;
20008;SDS011;10165;42.662;23.260;2022-09-03T11:26:14;4.63;;;3.80;;
20008;SDS011;10165;42.662;23.260;2022-09-03T11:31:33;4.30;;;3.77;;
20008;SDS011;10165;42.662;23.260;2022-09-03T11:39:40;3.77;;;3.20;;
20008;SDS011;10165;42.662;23.260;2022-09-03T11:42:11;4.10;;;3.30;;
20008;SDS011;10165;42.662;23.260;2022-09-03T11:44:58;3.87;;;3.30;;
20008;SDS011;10165;42.662;23.260;2022-09-03T11:47:39;3.20;;;2.90;;
20008;SDS011;10165;42.662;23.260;2022-09-03T11:50:16;5.63;;;3.43;;
20008;SDS011;10165;42.662;23.260;2022-09-03T11:52:52;5.97;;;3.00;;
20008;SDS011;10165;42.662;23.260;2022-09-03T11:55:32;4.83;;;3.30;;
20008;SDS011;10165;42.662;23.260;2022-09-03T11:58:23;3.47;;;3.17;;
20008;SDS011;10165;42.662;23.260;2022-09-03T12:00:50;7.43;;;3.77;;
20008;SDS011;10165;42.662;23.260;2022-09-03T12:03:23;2.70;;;2.40;;
20008;SDS011;10165;42.662;23.260;2022-09-03T12:09:15;7.03;;;3.30;;
20008;SDS011;10165;42.662;23.260;2022-09-03T12:11:59;3.10;;;2.63;;
20008;SDS011;10165;42.662;23.260;2022-09-03T12:14:35;3.80;;;2.97;;
20008;SDS011;10165;42.662;23.260;2022-09-03T12:19:49;4.60;;;3.03;;
20008;SDS011;10165;42.662;23.260;2022-09-03T12:22:22;3.83;;;3.20;;
20008;SDS011;10165;42.662;23.260;2022-09-03T12:24:54;5.63;;;3.03;;
20008;SDS011;10165;42.662;23.260;2022-09-03T12:27:22;4.33;;;3.43;;
20008;SDS011;10165;42.662;23.260;2022-09-03T12:32:32;5.50;;;3.80;;
20008;SDS011;10165;42.662;23.260;2022-09-03T12:35:18;3.87;;;3.13;;
20008;SDS011;10165;42.662;23.260;2022-09-03T12:38:06;7.07;;;3.90;;
20008;SDS011;10165;42.662;23.260;2022-09-03T12:40:40;7.70;;;3.53;;
20008;SDS011;10165;42.662;23.260;2022-09-03T12:43:28;4.43;;;3.30;;
20008;SDS011;10165;42.662;23.260;2022-09-03T12:46:04;5.07;;;3.70;;
20008;SDS011;10165;42.662;23.260;2022-09-03T12:48:38;5.87;;;3.67;;
20008;SDS011;10165;42.662;23.260;2022-09-03T12:51:38;11.43;;;7.50;;
20008;SDS011;10165;42.662;23.260;2022-09-03T12:54:21;22.77;;;13.57;;
20008;SDS011;10165;42.662;23.260;2022-09-03T12:56:51;4.20;;;3.80;;
20008;SDS011;10165;42.662;23.260;2022-09-03T12:59:21;4.17;;;3.40;;
20008;SDS011;10165;42.662;23.260;2022-09-03T13:01:51;8.03;;;4.17;;
20008;SDS011;10165;42.662;23.260;2022-09-03T13:04:22;3.97;;;3.50;;
20008;SDS011;10165;42.662;23.260;2022-09-03T13:09:32;4.30;;;3.27;;
20008;SDS011;10165;42.662;23.260;2022-09-03T13:12:03;3.53;;;2.70;;
20008;SDS011;10165;42.662;23.260;2022-09-03T13:14:41;4.40;;;3.50;;
20008;SDS011;10165;42.662;23.260;2022-09-03T13:17:27;4.00;;;3.03;;
20008;SDS011;10165;42.662;23.260;2022-09-03T13:22:58;3.00;;;2.70;;
20008;SDS011;10165;42.662;23.260;2022-09-03T13:25:36;3.53;;;3.10;;
20008;SDS011;10165;42.662;23.260;2022-09-03T13:30:56;2.90;;;2.60;;
20008;SDS011;10165;42.662;23.260;2022-09-03T13:33:35;3.70;;;3.10;;
20008;SDS011;10165;42.662;23.260;2022-09-03T13:36:20;3.33;;;3.00;;
20008;SDS011;10165;42.662;23.260;2022-09-03T13:38:55;4.03;;;3.30;;
20008;SDS011;10165;42.662;23.260;2022-09-03T13:41:38;4.60;;;3.10;;
20008;SDS011;10165;42.662;23.260;2022-09-03T13:44:32;3.60;;;2.97;;
20008;SDS011;10165;42.662;23.260;2022-09-03T13:50:03;5.30;;;3.20;;
20008;SDS011;10165;42.662;23.260;2022-09-03T13:55:34;6.03;;;3.30;;
20008;SDS011;10165;42.662;23.260;2022-09-03T13:58:17;3.53;;;3.10;;
20008;SDS011;10165;42.662;23.260;2022-09-03T14:00:49;4.27;;;3.33;;
20008;SDS011;10165;42.662;23.260;2022-09-03T14:03:51;3.20;;;2.87;;
20008;SDS011;10165;42.662;23.260;2022-09-03T14:16:58;3.43;;;2.73;;
20008;SDS011;10165;42.662;23.260;2022-09-03T14:22:21;8.03;;;3.30;;
20008;SDS011;10165;42.662;23.260;2022-09-03T14:27:52;3.30;;;2.60;;
20008;SDS011;10165;42.662;23.260;2022-09-03T14:30:36;4.20;;;3.20;;
20008;SDS011;10165;42.662;23.260;2022-09-03T14:35:52;3.63;;;2.67;;
20008;SDS011;10165;42.662;23.260;2022-09-03T14:41:24;3.97;;;3.20;;
20008;SDS011;10165;42.662;23.260;2022-09-03T14:52:02;2.57;;;2.30;;
20008;SDS011;10165;42.662;23.260;2022-09-03T15:11:58;2.47;;;2.27;;
20008;SDS011;10165;42.662;23.260;2022-09-03T15:14:33;2.53;;;2.33;;
20008;SDS011;10165;42.662;23.260;2022-09-03T15:23:08;4.57;;;3.23;;
20008;SDS011;10165;42.662;23.260;2022-09-03T15:28:22;3.80;;;2.83;;
20008;SDS011;10165;42.662;23.260;2022-09-03T15:31:10;3.73;;;3.03;;
20008;SDS011;10165;42.662;23.260;2022-09-03T15:33:47;4.13;;;3.00;;
20008;SDS011;10165;42.662;23.260;2022-09-03T15:36:25;3.20;;;2.90;;
20008;SDS011;10165;42.662;23.260;2022-09-03T15:39:01;6.60;;;3.00;;
20008;SDS011;10165;42.662;23.260;2022-09-03T15:44:33;7.50;;;3.20;;
20008;SDS011;10165;42.662;23.260;2022-09-03T15:47:06;4.27;;;3.17;;
20008;SDS011;10165;42.662;23.260;2022-09-03T15:49:58;4.17;;;3.60;;
20008;SDS011;10165;42.662;23.260;2022-09-03T15:55:38;4.43;;;3.37;;
20008;SDS011;10165;42.662;23.260;2022-09-03T16:01:05;4.97;;;3.70;;
20008;SDS011;10165;42.662;23.260;2022-09-03T16:06:32;4.77;;;3.47;;
20008;SDS011;10165;42.662;23.260;2022-09-03T16:09:07;3.80;;;3.00;;
20008;SDS011;10165;42.662;23.260;2022-09-03T16:11:38;4.13;;;3.33;;
20008;SDS011;10165;42.662;23.260;2022-09-03T16:16:53;6.53;;;3.37;;
20008;SDS011;10165;42.662;23.260;2022-09-03T16:19:27;4.77;;;3.47;;
20008;SDS011;10165;42.662;23.260;2022-09-03T16:22:05;3.93;;;2.80;;
20008;SDS011;10165;42.662;23.260;2022-09-03T16:24:58;5.30;;;3.93;;
20008;SDS011;10165;42.662;23.260;2022-09-03T16:27:37;4.13;;;3.40;;
20008;SDS011;10165;42.662;23.260;2022-09-03T16:38:48;6.70;;;4.53;;
20008;SDS011;10165;42.662;23.260;2022-09-03T16:49:48;5.47;;;4.53;;
20008;SDS011;10165;42.662;23.260;2022-09-03T16:55:59;5.10;;;4.00;;
20008;SDS011;10165;42.662;23.260;2022-09-03T17:06:59;5.57;;;4.33;;
20008;SDS011;10165;42.662;23.260;2022-09-03T17:15:30;4.60;;;3.80;;
20008;SDS011;10165;42.662;23.260;2022-09-03T17:18:15;5.23;;;4.20;;
20008;SDS011;10165;42.662;23.260;2022-09-03T17:26:41;9.67;;;4.97;;
20008;SDS011;10165;42.662;23.260;2022-09-03T17:29:26;6.43;;;4.80;;
20008;SDS011;10165;42.662;23.260;2022-09-03T17:43:05;7.57;;;4.60;;
20008;SDS011;10165;42.662;23.260;2022-09-03T17:45:41;6.97;;;4.70;;
20008;SDS011;10165;42.662;23.260;2022-09-03T17:53:22;4.80;;;4.03;;
20008;SDS011;10165;42.662;23.260;2022-09-03T17:56:01;6.57;;;4.43;;
20008;SDS011;10165;42.662;23.260;2022-09-03T17:58:36;5.40;;;4.20;;
20008;SDS011;10165;42.662;23.260;2022-09-03T18:06:25;5.83;;;4.27;;
20008;SDS011;10165;42.662;23.260;2022-09-03T18:09:11;5.97;;;4.00;;
20008;SDS011;10165;42.662;23.260;2022-09-03T18:11:52;5.23;;;4.40;;
20008;SDS011;10165;42.662;23.260;2022-09-03T18:14:27;7.33;;;4.97;;
20008;SDS011;10165;42.662;23.260;2022-09-03T18:19:44;9.93;;;5.07;;
20008;SDS011;10165;42.662;23.260;2022-09-03T18:22:52;11.20;;;4.90;;
20008;SDS011;10165;42.662;23.260;2022-09-03T18:25:46;5.83;;;4.53;;
20008;SDS011;10165;42.662;23.260;2022-09-03T18:28:46;8.07;;;4.53;;
20008;SDS011;10165;42.662;23.260;2022-09-03T18:31:35;13.83;;;4.40;;
20008;SDS011;10165;42.662;23.260;2022-09-03T18:34:23;7.70;;;4.70;;
20008;SDS011;10165;42.662;23.260;2022-09-03T18:37:16;10.70;;;4.83;;
20008;SDS011;10165;42.662;23.260;2022-09-03T18:40:05;12.77;;;5.53;;
20008;SDS011;10165;42.662;23.260;2022-09-03T18:43:07;9.90;;;5.37;;
20008;SDS011;10165;42.662;23.260;2022-09-03T18:46:08;13.80;;;5.03;;
20008;SDS011;10165;42.662;23.260;2022-09-03T18:58:58;17.27;;;5.33;;
20008;SDS011;10165;42.662;23.260;2022-09-03T19:01:41;9.20;;;5.27;;
20008;SDS011;10165;42.662;23.260;2022-09-03T19:04:45;6.70;;;4.47;;
20008;SDS011;10165;42.662;23.260;2022-09-03T19:08:13;7.87;;;5.03;;
20008;SDS011;10165;42.662;23.260;2022-09-03T19:11:08;13.03;;;6.13;;
20008;SDS011;10165;42.662;23.260;2022-09-03T19:14:12;9.53;;;5.00;;
20008;SDS011;10165;42.662;23.260;2022-09-03T19:20:29;6.43;;;5.33;;
20008;SDS011;10165;42.662;23.260;2022-09-03T19:23:16;6.03;;;4.90;;
20008;SDS011;10165;42.662;23.260;2022-09-03T19:26:09;6.13;;;4.93;;
20008;SDS011;10165;42.662;23.260;2022-09-03T19:29:05;6.67;;;5.17;;
20008;SDS011;10165;42.662;23.260;2022-09-03T19:32:00;7.30;;;5.37;;
20008;SDS011;10165;42.662;23.260;2022-09-03T19:34:58;10.77;;;5.20;;
20008;SDS011;10165;42.662;23.260;2022-09-03T19:46:59;9.37;;;4.40;;
20008;SDS011;10165;42.662;23.260;2022-09-03T19:52:49;6.63;;;5.13;;
20008;SDS011;10165;42.662;23.260;2022-09-03T19:55:40;6.83;;;5.03;;
20008;SDS011;10165;42.662;23.260;2022-09-03T19:58:33;6.03;;;5.13;;
20008;SDS011;10165;42.662;23.260;2022-09-03T20:01:22;5.87;;;4.53;;
20008;SDS011;10165;42.662;23.260;2022-09-03T20:04:13;8.53;;;5.63;;
20008;SDS011;10165;42.662;23.260;2022-09-03T20:07:00;8.87;;;5.30;;
20008;SDS011;10165;42.662;23.260;2022-09-03T20:09:48;7.67;;;4.80;;
20008;SDS011;10165;42.662;23.260;2022-09-03T20:12:37;9.97;;;5.13;;
20008;SDS011;10165;42.662;23.260;2022-09-03T20:15:08;10.43;;;5.70;;
20008;SDS011;10165;42.662;23.260;2022-09-03T20:22:52;8.50;;;5.10;;